Time;durP1;ratioP1;P1;durP2;ratioP2;P2;SDS_P1;SDS_P2;PMS_P1;PMS_P2;Temp;Humidity;BMP_temperature;BMP_pressure;BME280_temperature;BME280_humidity;BME280_pressure;Samples;Min_cycle;Max_cycle;Signal;HPM_P1;HPM_P2
2022/04/21 00:02:45;;;;;;;1.50;0.75;;;13.40;60.80;;;;;;20706822;28;20037;-75
2022/04/21 00:12:46;;;;;;;1.65;0.88;;;13.40;60.80;;;;;;20722351;28;20030;-75
2022/04/21 00:33:05;;;;;;;2.90;0.85;;;13.40;60.70;;;;;;20708357;28;20026;-75
2022/04/21 00:43:06;;;;;;;1.88;1.00;;;13.30;60.60;;;;;;20690021;28;20137;-75
2022/04/21 00:53:07;;;;;;;3.92;1.63;;;13.30;60.60;;;;;;20720934;28;20084;-75
2022/04/21 01:03:07;;;;;;;1.45;1.00;;;13.30;60.50;;;;;;20693680;28;20049;-75
2022/04/21 01:13:10;;;;;;;2.83;0.55;;;13.30;60.50;;;;;;20735717;28;20111;-75
2022/04/21 01:23:10;;;;;;;1.30;0.90;;;13.30;60.50;;;;;;20718652;28;20671;-75
2022/04/21 01:33:11;;;;;;;1.90;1.02;;;13.30;60.50;;;;;;20717987;28;20083;-75
2022/04/21 01:43:11;;;;;;;1.33;0.73;;;13.20;60.50;;;;;;20717147;28;20065;-75
2022/04/21 01:53:12;;;;;;;1.73;0.77;;;13.20;60.40;;;;;;20716463;28;20033;-76
2022/04/21 02:03:12;;;;;;;1.52;0.95;;;13.20;60.40;;;;;;20731722;28;20072;-76
2022/04/21 02:13:13;;;;;;;1.15;0.77;;;13.20;60.30;;;;;;20732486;28;20112;-75
2022/04/21 02:23:14;;;;;;;1.88;1.05;;;13.20;60.30;;;;;;20697700;28;20408;-76
2022/04/21 02:33:14;;;;;;;2.63;1.10;;;13.20;60.20;;;;;;21087364;23;20128;-76
2022/04/21 02:43:15;;;;;;;1.45;0.90;;;13.20;60.20;;;;;;20713555;28;20038;-76
2022/04/21 02:53:17;;;;;;;2.15;0.95;;;13.10;60.10;;;;;;20711937;28;20038;-75
2022/04/21 03:03:18;;;;;;;1.50;0.90;;;13.20;60.20;;;;;;20727104;28;20034;-75
2022/04/21 03:13:18;;;;;;;1.55;0.90;;;13.10;60.10;;;;;;20719384;28;20256;-76
2022/04/21 03:33:38;;;;;;;1.38;0.70;;;13.20;60.10;;;;;;20711188;28;20042;-76
2022/04/21 03:43:39;;;;;;;1.02;0.80;;;13.10;60.00;;;;;;20692237;28;20100;-73
2022/04/21 03:53:39;;;;;;;1.40;0.60;;;13.10;60.10;;;;;;20723216;28;20041;-76
2022/04/21 04:03:40;;;;;;;0.80;0.68;;;13.10;60.10;;;;;;20691284;28;20038;-77
2022/04/21 04:13:40;;;;;;;1.48;0.80;;;13.20;60.20;;;;;;20690846;28;20169;-79
2022/04/21 04:23:41;;;;;;;1.10;0.82;;;13.20;60.30;;;;;;20706114;28;20037;-74
2022/04/21 04:33:41;;;;;;;2.03;1.20;;;13.10;60.30;;;;;;20741347;28;20108;-77
2022/04/21 04:43:42;;;;;;;1.35;0.55;;;13.10;60.30;;;;;;20734431;28;20076;-75
2022/04/21 04:53:43;;;;;;;1.98;0.80;;;13.10;60.40;;;;;;20722304;28;20468;-78
2022/04/21 05:03:43;;;;;;;2.70;0.70;;;13.10;60.50;;;;;;20737176;28;20499;-77
2022/04/21 05:13:44;;;;;;;0.77;0.70;;;13.10;60.50;;;;;;20737046;28;20120;-76
2022/04/21 05:23:47;;;;;;;3.42;0.90;;;13.10;60.60;;;;;;20716763;28;20040;-76
2022/04/21 05:33:47;;;;;;;1.27;0.70;;;13.10;60.70;;;;;;20718461;28;20069;-76
2022/04/21 05:43:50;;;;;;;2.47;0.73;;;13.10;60.70;;;;;;20717075;28;20034;-78
2022/04/21 05:53:50;;;;;;;4.90;1.02;;;13.10;60.80;;;;;;20716626;28;20116;-77
2022/04/21 06:03:52;;;;;;;1.65;0.98;;;13.10;60.90;;;;;;20717164;28;20564;-77
2022/04/21 06:13:52;;;;;;;1.27;0.73;;;13.00;60.80;;;;;;20699097;28;20122;-77
2022/04/21 06:23:53;;;;;;;2.40;0.70;;;13.00;60.90;;;;;;20698434;28;20037;-76
2022/04/21 06:33:54;;;;;;;2.58;0.63;;;13.00;60.90;;;;;;20732221;28;20415;-76
2022/04/21 06:48:01;;;;;;;3.15;0.65;;;13.00;61.00;;;;;;20729637;28;20065;-77
2022/04/21 06:54:24;;;;;;;1.15;0.50;;;13.00;61.00;;;;;;20733186;28;20042;-76
2022/04/21 07:04:27;;;;;;;0.98;0.50;;;13.00;61.00;;;;;;20733739;28;20037;-76
2022/04/21 07:14:28;;;;;;;1.83;0.70;;;13.10;61.10;;;;;;20727192;28;20064;-76
2022/04/21 07:24:28;;;;;;;0.98;0.50;;;13.00;61.20;;;;;;20709659;28;20046;-76
2022/04/21 07:34:29;;;;;;;1.67;0.82;;;13.00;61.20;;;;;;20708804;28;20038;-76
2022/04/21 07:44:30;;;;;;;1.95;0.40;;;13.00;61.20;;;;;;20723806;28;20048;-76
2022/04/21 07:54:30;;;;;;;0.57;0.50;;;13.10;61.30;;;;;;20724265;28;20105;-76
2022/04/21 08:04:31;;;;;;;2.13;0.50;;;13.10;61.30;;;;;;20706740;28;20041;-76
2022/04/21 08:14:31;;;;;;;1.63;0.60;;;13.10;61.30;;;;;;20723002;28;20443;-76
2022/04/21 08:34:51;;;;;;;1.10;0.50;;;13.10;61.30;;;;;;20708856;28;20038;-76
2022/04/21 08:44:51;;;;;;;1.30;0.55;;;13.10;61.40;;;;;;20721788;28;20038;-76
2022/04/21 08:54:52;;;;;;;1.00;0.47;;;13.10;61.40;;;;;;20722456;28;20046;-76
2022/04/21 09:04:53;;;;;;;0.97;0.47;;;13.10;61.40;;;;;;20704321;28;20041;-75
2022/04/21 09:14:53;;;;;;;0.70;0.60;;;13.10;61.40;;;;;;20704231;28;20284;-76
2022/04/21 09:24:54;;;;;;;2.90;0.60;;;13.10;61.40;;;;;;20722299;28;20042;-75
2022/04/21 09:34:56;;;;;;;1.25;0.50;;;13.10;61.30;;;;;;20735441;28;20308;-77
2022/04/21 09:55:24;;;;;;;1.17;0.50;;;13.20;61.40;;;;;;20735896;28;20026;-76
2022/04/21 10:05:25;;;;;;;0.77;0.60;;;13.20;61.40;;;;;;20699389;28;20033;-76
2022/04/21 10:15:29;;;;;;;0.73;0.40;;;13.20;61.40;;;;;;20731528;28;20392;-76
2022/04/21 10:25:34;;;;;;;1.35;0.65;;;13.20;61.40;;;;;;20730712;28;20067;-76
2022/04/21 10:35:35;;;;;;;0.73;0.40;;;13.20;61.50;;;;;;20713268;28;20183;-75
2022/04/21 10:45:37;;;;;;;1.05;0.40;;;13.20;61.50;;;;;;20730367;28;20133;-77
2022/04/21 11:06:07;;;;;;;0.90;0.50;;;13.20;61.50;;;;;;20714356;28;20072;-72
2022/04/21 11:16:08;;;;;;;0.80;0.60;;;13.20;61.50;;;;;;20706030;28;20439;-73
2022/04/21 11:26:09;;;;;;;0.77;0.47;;;13.10;61.50;;;;;;20712054;28;20063;-77
2022/04/21 11:36:10;;;;;;;0.33;0.30;;;13.10;61.50;;;;;;20735954;28;20037;-73
2022/04/21 11:46:12;;;;;;;0.85;0.55;;;13.20;61.60;;;;;;20712003;28;20359;-73
2022/04/21 11:56:13;;;;;;;1.27;0.60;;;13.20;61.50;;;;;;20703711;28;20026;-72
2022/04/21 12:06:29;;;;;;;0.60;0.50;;;13.20;61.50;;;;;;20690927;28;20046;-72
2022/04/21 12:16:39;;;;;;;0.40;0.38;;;13.20;61.50;;;;;;20691985;28;20285;-72
2022/04/21 12:26:53;;;;;;;0.77;0.50;;;13.20;61.50;;;;;;20721729;28;20042;-72
2022/04/21 12:36:59;;;;;;;0.93;0.65;;;13.20;61.50;;;;;;20688901;28;20392;-73
2022/04/21 12:47:02;;;;;;;1.45;0.30;;;13.20;61.60;;;;;;20687581;28;20045;-72
2022/04/21 12:57:03;;;;;;;1.20;0.60;;;13.20;61.60;;;;;;20719865;28;20041;-72
2022/04/21 13:07:04;;;;;;;2.20;0.60;;;13.20;61.60;;;;;;20718823;28;20495;-71
2022/04/21 13:17:04;;;;;;;1.13;0.50;;;13.20;61.60;;;;;;20735579;28;20432;-71
2022/04/21 13:27:05;;;;;;;1.38;0.57;;;13.20;61.60;;;;;;20734740;28;20076;-70
2022/04/21 13:37:06;;;;;;;2.33;0.83;;;13.30;61.70;;;;;;20752652;28;20037;-71
2022/04/21 13:47:06;;;;;;;0.50;0.45;;;13.30;61.70;;;;;;20733132;28;20380;-70
2022/04/21 13:57:07;;;;;;;0.60;0.52;;;13.30;61.80;;;;;;20737657;28;20175;-77
2022/04/21 14:07:08;;;;;;;1.00;0.68;;;13.30;61.80;;;;;;20702878;28;20034;-73
2022/04/21 14:17:08;;;;;;;3.03;0.65;;;13.30;61.90;;;;;;20712746;28;20042;-72
2022/04/21 14:27:09;;;;;;;0.85;0.50;;;13.30;61.90;;;;;;20699180;28;20042;-74
2022/04/21 14:37:10;;;;;;;1.15;0.70;;;13.30;61.90;;;;;;20674402;28;20045;-70
2022/04/21 14:47:10;;;;;;;0.57;0.40;;;13.40;61.80;;;;;;20746502;28;20080;-70
2022/04/21 14:57:11;;;;;;;0.63;0.50;;;13.40;61.80;;;;;;20720886;28;20053;-73
2022/04/21 15:07:12;;;;;;;1.02;0.70;;;13.50;61.70;;;;;;20699712;28;20044;-69
2022/04/21 15:17:12;;;;;;;3.60;1.17;;;13.50;61.80;;;;;;20703541;28;20065;-70
2022/04/21 15:27:13;;;;;;;4.18;0.82;;;13.50;61.90;;;;;;20692062;28;20052;-73
2022/04/21 15:37:13;;;;;;;3.57;1.00;;;13.50;62.00;;;;;;20709760;28;20073;-72
2022/04/21 15:47:14;;;;;;;1.50;0.70;;;13.50;62.00;;;;;;20723976;28;20292;-76
2022/04/21 16:07:34;;;;;;;5.13;1.10;;;13.60;62.20;;;;;;20695646;28;20034;-73
2022/04/21 16:17:35;;;;;;;2.55;0.90;;;13.60;62.30;;;;;;20692802;28;20044;-73
2022/04/21 16:27:37;;;;;;;1.45;0.70;;;13.60;62.40;;;;;;20693608;28;20100;-73
2022/04/21 16:37:38;;;;;;;5.78;0.80;;;13.50;62.40;;;;;;20682956;28;20061;-73
2022/04/21 16:47:39;;;;;;;4.03;1.30;;;13.50;62.40;;;;;;20706525;28;20079;-76
2022/04/21 16:57:40;;;;;;;1.70;0.80;;;13.50;62.40;;;;;;20684973;28;20034;-73
2022/04/21 17:07:42;;;;;;;1.88;1.00;;;13.50;62.50;;;;;;20717570;28;20041;-73
2022/04/21 17:17:43;;;;;;;2.40;0.90;;;13.50;62.50;;;;;;20716847;28;20069;-72
2022/04/21 17:27:43;;;;;;;4.43;1.10;;;13.50;62.60;;;;;;20721593;28;20037;-73
2022/04/21 17:37:44;;;;;;;3.08;1.10;;;13.50;62.60;;;;;;20729187;28;20347;-74
2022/04/21 17:47:45;;;;;;;1.80;0.85;;;13.50;62.70;;;;;;20694549;28;20037;-73
2022/04/21 17:57:46;;;;;;;4.45;1.20;;;13.50;62.80;;;;;;20734669;28;20121;-73
2022/04/21 18:07:46;;;;;;;2.97;1.70;;;13.40;63.10;;;;;;20716995;28;20046;-74
2022/04/21 18:17:47;;;;;;;3.63;1.30;;;13.40;63.80;;;;;;20716772;28;20041;-74
2022/04/21 18:27:47;;;;;;;2.40;1.13;;;13.40;63.20;;;;;;20749038;28;20066;-73
2022/04/21 18:37:48;;;;;;;1.77;1.10;;;13.40;63.20;;;;;;20697849;28;20125;-74
2022/04/21 18:47:49;;;;;;;1.08;0.60;;;13.40;63.20;;;;;;20713512;28;20362;-73
2022/04/21 19:08:09;;;;;;;1.83;0.93;;;13.40;63.20;;;;;;20711863;28;20045;-74
2022/04/21 19:18:09;;;;;;;1.70;1.10;;;13.40;63.30;;;;;;20695481;28;20480;-73
2022/04/21 19:28:10;;;;;;;2.85;1.25;;;13.30;63.20;;;;;;20710708;28;20038;-73
2022/04/21 19:38:10;;;;;;;3.20;0.82;;;13.30;63.20;;;;;;20693863;28;20131;-73
2022/04/21 19:48:11;;;;;;;1.38;0.82;;;13.30;63.30;;;;;;20693141;28;20397;-73
2022/04/21 19:58:11;;;;;;;2.35;0.90;;;13.30;63.30;;;;;;20676467;28;20285;-74
2022/04/21 20:18:31;;;;;;;2.50;1.23;;;13.30;63.50;;;;;;20696813;28;20283;-73
2022/04/21 20:28:32;;;;;;;0.98;0.75;;;13.30;63.50;;;;;;20724109;28;20117;-72
2022/04/21 20:38:36;;;;;;;1.02;0.68;;;13.30;63.60;;;;;;20707085;28;20396;-73
2022/04/21 20:48:36;;;;;;;1.90;1.30;;;13.30;63.60;;;;;;20707117;28;20038;-74
2022/04/21 20:58:37;;;;;;;1.60;0.80;;;13.30;63.70;;;;;;20706085;28;20045;-74
2022/04/21 21:08:37;;;;;;;1.20;0.82;;;13.20;63.70;;;;;;20721681;28;20296;-74
2022/04/21 21:18:38;;;;;;;1.73;1.20;;;13.20;63.70;;;;;;20690170;28;20040;-73
2022/04/21 21:28:39;;;;;;;1.83;1.23;;;13.20;63.80;;;;;;20686769;28;20779;-73
2022/04/21 21:38:42;;;;;;;1.33;0.73;;;13.20;63.90;;;;;;20719117;28;20036;-73
2022/04/21 21:59:01;;;;;;;2.90;0.98;;;13.20;64.00;;;;;;20751340;28;20030;-73
2022/04/21 22:09:04;;;;;;;1.75;1.20;;;13.20;64.00;;;;;;20700841;28;20128;-73
2022/04/21 22:19:05;;;;;;;1.80;1.23;;;13.20;64.10;;;;;;20716451;28;20034;-73
2022/04/21 22:29:06;;;;;;;1.92;1.10;;;13.20;64.10;;;;;;20748853;28;20564;-74
2022/04/21 22:39:06;;;;;;;1.63;0.90;;;13.20;64.20;;;;;;20698016;28;20064;-73
2022/04/21 22:49:07;;;;;;;1.65;1.00;;;13.20;64.20;;;;;;20729877;28;20046;-73
2022/04/21 22:59:07;;;;;;;1.40;0.90;;;13.20;64.30;;;;;;20713130;28;20112;-73
2022/04/21 23:19:28;;;;;;;2.05;1.45;;;13.20;64.40;;;;;;20717026;28;20109;-74
2022/04/21 23:29:33;;;;;;;2.20;1.20;;;13.20;64.40;;;;;;20710658;28;20045;-73
2022/04/21 23:39:33;;;;;;;2.00;1.25;;;13.20;64.40;;;;;;20711684;28;20042;-73
2022/04/21 23:49:34;;;;;;;2.50;1.37;;;13.20;64.40;;;;;;20708552;28;20053;-73
2022/04/21 23:59:35;;;;;;;2.25;1.13;;;13.20;64.40;;;;;;20708496;28;20706;-73
